createdAt,value
2023-05-16T00:01:33.306Z,95128.88
2023-05-16T00:04:06.711Z,95134.16
2023-05-16T00:06:38.452Z,95127.31
2023-05-16T00:09:10.012Z,95128.84
2023-05-16T00:11:41.861Z,95132.69
2023-05-16T00:14:14.946Z,95130.84
2023-05-16T00:16:47.403Z,95133.13
2023-05-16T00:19:20.601Z,95127.78
2023-05-16T00:21:53.076Z,95123.50
2023-05-16T00:24:24.714Z,95121.63
2023-05-16T00:26:56.267Z,95119.78
2023-05-16T00:29:27.824Z,95124.38
2023-05-16T00:31:59.566Z,95111.06
2023-05-16T00:34:32.294Z,95110.72
2023-05-16T00:37:03.942Z,95104.25
2023-05-16T00:39:35.811Z,95108.81
2023-05-16T00:42:07.417Z,95107.31
2023-05-16T00:44:39.359Z,95105.41
2023-05-16T00:47:10.838Z,95111.16
2023-05-16T00:49:42.813Z,95111.16
2023-05-16T00:52:16.294Z,95111.53
2023-05-16T00:54:47.850Z,95110.03
2023-05-16T00:57:19.871Z,95110.78
2023-05-16T00:59:54.815Z,95103.56
2023-05-16T01:02:29.988Z,95111.56
2023-05-16T01:05:01.983Z,95113.06
2023-05-16T01:07:33.605Z,95116.50
2023-05-16T01:10:07.877Z,95113.84
2023-05-16T01:12:59.393Z,95114.25
2023-05-16T01:15:47.525Z,95111.19
2023-05-16T01:18:37.220Z,95105.84
2023-05-16T01:21:17.828Z,95107.38
2023-05-16T01:24:10.665Z,95105.09
2023-05-16T01:26:44.972Z,95097.09
2023-05-16T01:29:17.386Z,95101.28
2023-05-16T01:31:49.279Z,95097.09
2023-05-16T01:34:20.925Z,95097.50
2023-05-16T01:37:13.045Z,95096.31
2023-05-16T01:39:52.244Z,95094.75
2023-05-16T01:42:33.333Z,95089.03
2023-05-16T01:45:14.340Z,95086.34
2023-05-16T01:47:52.395Z,95087.13
2023-05-16T01:50:27.181Z,95089.41
2023-05-16T01:53:04.705Z,95092.47
2023-05-16T01:55:49.627Z,95087.13
2023-05-16T01:58:25.095Z,95082.16
2023-05-16T02:01:05.184Z,95085.22
2023-05-16T02:03:36.834Z,95078.75
2023-05-16T02:06:08.406Z,95085.94
2023-05-16T02:08:40.024Z,95092.81
2023-05-16T02:11:11.816Z,95083.66
2023-05-16T02:13:43.375Z,95085.91
2023-05-16T02:16:14.915Z,95083.63
2023-05-16T02:18:46.698Z,95090.09
2023-05-16T02:21:18.227Z,95082.47
2023-05-16T02:23:49.822Z,95090.06
2023-05-16T02:26:21.879Z,95088.53
2023-05-16T02:28:54.383Z,95085.09
2023-05-16T02:31:30.669Z,95090.78
2023-05-16T02:34:02.956Z,95094.59
2023-05-16T02:36:35.965Z,95094.59
2023-05-16T02:39:09.858Z,95098.00
2023-05-16T02:41:41.982Z,95090.00
2023-05-16T02:44:13.487Z,95093.38
2023-05-16T02:46:45.069Z,95096.66
2023-05-16T02:49:17.097Z,95098.16
2023-05-16T02:51:48.605Z,95094.31
2023-05-16T02:54:20.351Z,95095.06
2023-05-16T02:56:51.868Z,95090.88
2023-05-16T02:59:23.418Z,95088.22
2023-05-16T03:01:56.815Z,95094.28
2023-05-16T03:04:28.672Z,95093.16
2023-05-16T03:07:00.589Z,95089.34
2023-05-16T03:09:32.081Z,95092.41
2023-05-16T03:12:04.110Z,95090.94
2023-05-16T03:14:35.910Z,95084.44
2023-05-16T03:17:07.332Z,95085.19
2023-05-16T03:19:38.751Z,95087.09
2023-05-16T03:22:10.075Z,95084.03
2023-05-16T03:24:41.553Z,95091.28
2023-05-16T03:27:12.996Z,95094.75
2023-05-16T03:29:44.378Z,95092.09
2023-05-16T03:32:15.712Z,95086.06
2023-05-16T03:34:47.126Z,95087.97
2023-05-16T03:37:18.533Z,95093.69
2023-05-16T03:39:49.935Z,95097.53
2023-05-16T03:42:21.449Z,95088.75
2023-05-16T03:44:52.866Z,95089.94
2023-05-16T03:47:24.577Z,95085.38
2023-05-16T03:49:55.967Z,95093.00
2023-05-16T03:52:29.759Z,95089.19
2023-05-16T03:55:02.992Z,95085.00
2023-05-16T03:57:34.733Z,95091.09
2023-05-16T04:00:09.089Z,95086.47
2023-05-16T04:02:41.264Z,95090.31
2023-05-16T04:05:13.962Z,95095.22
2023-05-16T04:07:45.523Z,95088.34
2023-05-16T04:10:17.912Z,95083.41
2023-05-16T04:12:49.692Z,95088.72
2023-05-16T04:15:21.262Z,95081.44
2023-05-16T04:17:52.727Z,95083.28
2023-05-16T04:20:24.165Z,95084.50
2023-05-16T04:22:55.577Z,95084.16
2023-05-16T04:25:27.111Z,95081.50
2023-05-16T04:27:58.613Z,95081.88
2023-05-16T04:30:29.986Z,95083.09
2023-05-16T04:33:01.498Z,95092.22
2023-05-16T04:35:33.651Z,95091.84
2023-05-16T04:38:05.064Z,95086.16
2023-05-16T04:40:36.494Z,95088.50
2023-05-16T04:43:09.297Z,95091.19
2023-05-16T04:45:44.272Z,95087.44
2023-05-16T04:48:15.887Z,95094.69
2023-05-16T04:50:47.222Z,95092.41
2023-05-16T04:53:18.701Z,95088.63
2023-05-16T04:55:50.035Z,95094.34
2023-05-16T04:58:24.278Z,95100.50
2023-05-16T05:00:55.905Z,95095.88
2023-05-16T05:03:27.944Z,95096.97
2023-05-16T05:05:59.480Z,95100.78
2023-05-16T05:08:30.885Z,95098.00
2023-05-16T05:11:02.767Z,95100.59
2023-05-16T05:13:34.219Z,95096.47
2023-05-16T05:16:07.148Z,95099.22
2023-05-16T05:18:38.650Z,95100.78
2023-05-16T05:21:10.028Z,95101.16
2023-05-16T05:23:41.427Z,95098.09
2023-05-16T05:26:12.789Z,95102.28
2023-05-16T05:28:53.901Z,95104.94
2023-05-16T05:31:29.039Z,95099.25
2023-05-16T05:34:01.688Z,95104.63
2023-05-16T05:36:33.161Z,95101.53
2023-05-16T05:39:04.597Z,95106.88
2023-05-16T05:41:36.172Z,95099.19
2023-05-16T05:44:07.831Z,95096.91
2023-05-16T05:46:42.967Z,95098.84
2023-05-16T05:49:14.559Z,95096.25
2023-05-16T05:51:46.157Z,95091.31
2023-05-16T05:54:18.554Z,95096.69
2023-05-16T05:56:49.922Z,95091.31
2023-05-16T05:59:21.612Z,95092.94
2023-05-16T06:01:53.292Z,95086.75
2023-05-16T06:04:24.707Z,95087.16
2023-05-16T06:06:56.392Z,95086.41
2023-05-16T06:09:27.780Z,95081.84
2023-05-16T06:12:00.100Z,95086.47
2023-05-16T06:14:31.473Z,95085.66
2023-05-16T06:17:03.219Z,95079.91
2023-05-16T06:19:34.697Z,95082.28
2023-05-16T06:22:07.475Z,95085.00
2023-05-16T06:24:38.914Z,95082.75
2023-05-16T06:27:10.372Z,95087.28
2023-05-16T06:29:41.783Z,95080.38
2023-05-16T06:32:13.531Z,95083.03
2023-05-16T06:34:45.092Z,95086.84
2023-05-16T06:37:16.894Z,95088.38
2023-05-16T06:39:48.480Z,95085.72
2023-05-16T06:42:20.590Z,95086.13
2023-05-16T06:44:52.077Z,95094.91
2023-05-16T06:47:23.793Z,95094.19
2023-05-16T06:49:55.388Z,95093.84
2023-05-16T06:52:26.925Z,95090.03
2023-05-16T06:54:58.291Z,95086.94
2023-05-16T06:57:30.264Z,95091.13
2023-05-16T07:00:01.965Z,95095.88
2023-05-16T07:02:33.430Z,95097.81
2023-05-16T07:05:05.137Z,95093.59
2023-05-16T07:07:36.641Z,95092.84
2023-05-16T07:10:08.512Z,95095.19
2023-05-16T07:12:41.820Z,95092.53
2023-05-16T07:15:13.285Z,95090.63
2023-05-16T07:17:44.814Z,95088.75
2023-05-16T07:20:16.249Z,95082.72
2023-05-16T07:22:47.713Z,95096.47
2023-05-16T07:25:19.484Z,95088.09
2023-05-16T07:27:51.023Z,95097.63
2023-05-16T07:30:22.624Z,95101.06
2023-05-16T07:32:54.241Z,95096.09
2023-05-16T07:35:25.810Z,95092.63
2023-05-16T07:37:57.676Z,95107.53
2023-05-16T07:40:29.591Z,95101.44
2023-05-16T07:43:02.756Z,95100.28
2023-05-16T07:45:34.161Z,95104.88
2023-05-16T07:48:05.671Z,95100.66
2023-05-16T07:50:37.416Z,95109.00
2023-05-16T07:53:08.896Z,95117.03
2023-05-16T07:55:40.487Z,95118.50
2023-05-16T07:58:11.947Z,95119.94
2023-05-16T08:00:43.729Z,95111.88
2023-05-16T08:03:15.459Z,95113.06
2023-05-16T08:05:48.895Z,95117.63
2023-05-16T08:08:20.426Z,95116.09
2023-05-16T08:10:51.883Z,95129.47
2023-05-16T08:13:23.368Z,95140.94
2023-05-16T08:15:54.807Z,95134.13
2023-05-16T08:18:26.213Z,95137.56
2023-05-16T08:20:57.659Z,95133.38
2023-05-16T08:23:29.103Z,95137.56
2023-05-16T08:26:01.557Z,95132.25
2023-05-16T08:28:33.414Z,95130.69
2023-05-16T08:31:04.905Z,95136.03
2023-05-16T08:33:36.628Z,95136.38
2023-05-16T08:36:09.501Z,95132.50
2023-05-16T08:38:40.919Z,95132.06
2023-05-16T08:41:12.435Z,95137.81
2023-05-16T08:43:46.094Z,95138.13
2023-05-16T08:46:21.404Z,95135.13
2023-05-16T08:48:54.753Z,95139.31
2023-05-16T08:51:28.148Z,95142.31
2023-05-16T08:54:14.362Z,95148.84
2023-05-16T08:56:46.382Z,95148.84
2023-05-16T08:59:17.857Z,95142.38
2023-05-16T09:01:49.286Z,95140.41
2023-05-16T09:04:21.315Z,95132.44
2023-05-16T09:06:53.055Z,95130.56
2023-05-16T09:09:25.565Z,95135.56
2023-05-16T09:11:57.049Z,95124.84
2023-05-16T09:14:28.592Z,95119.56
2023-05-16T09:17:04.895Z,95113.91
2023-05-16T09:19:42.814Z,95117.75
2023-05-16T09:22:15.644Z,95120.88
2023-05-16T09:24:47.149Z,95122.44
2023-05-16T09:27:18.690Z,95125.88
2023-05-16T09:29:52.923Z,95126.66
2023-05-16T09:32:25.020Z,95127.03
2023-05-16T09:34:58.734Z,95126.25
2023-05-16T09:37:30.526Z,95137.31
2023-05-16T09:40:03.486Z,95128.91
2023-05-16T09:42:34.945Z,95128.16
2023-05-16T09:45:06.755Z,95119.00
2023-05-16T09:47:45.956Z,95117.09
2023-05-16T09:50:18.701Z,95123.19
2023-05-16T09:52:51.302Z,95117.50
2023-05-16T09:55:23.097Z,95127.03
2023-05-16T09:57:57.595Z,95125.88
2023-05-16T10:00:30.631Z,95119.72
2023-05-16T10:03:06.400Z,95125.06
2023-05-16T10:05:40.190Z,95130.78
2023-05-16T10:08:12.182Z,95129.69
2023-05-16T10:10:43.798Z,95132.72
2023-05-16T10:13:15.673Z,95131.50
2023-05-16T10:15:48.577Z,95128.44
2023-05-16T10:18:21.434Z,95126.50
2023-05-16T10:20:54.717Z,95137.16
2023-05-16T10:23:26.675Z,95138.72
2023-05-16T10:25:59.135Z,95147.44
2023-05-16T10:28:31.381Z,95142.09
2023-05-16T10:31:03.081Z,95147.41
2023-05-16T10:33:35.797Z,95145.47
2023-05-16T10:36:10.651Z,95146.22
2023-05-16T10:38:43.030Z,95150.47
2023-05-16T10:41:14.789Z,95155.06
2023-05-16T10:43:55.956Z,95150.88
2023-05-16T10:46:29.382Z,95153.59
2023-05-16T10:49:20.949Z,95152.03
2023-05-16T10:52:08.534Z,95150.13
2023-05-16T10:54:43.729Z,95153.56
2023-05-16T10:57:23.601Z,95155.50
2023-05-16T10:59:58.421Z,95154.38
2023-05-16T11:02:34.769Z,95149.03
2023-05-16T11:05:07.763Z,95150.94
2023-05-16T11:07:39.594Z,95157.84
2023-05-16T11:10:15.626Z,95154.41
2023-05-16T11:12:51.138Z,95150.53
2023-05-16T11:15:22.985Z,95142.81
2023-05-16T11:18:05.212Z,95137.81
2023-05-16T11:20:37.825Z,95140.13
2023-05-16T11:23:15.530Z,95140.13
2023-05-16T11:25:49.438Z,95139.78
2023-05-16T11:28:24.614Z,95137.91
2023-05-16T11:30:59.163Z,95145.19
2023-05-16T11:33:31.304Z,95155.53
2023-05-16T11:36:15.326Z,95154.03
2023-05-16T11:38:47.825Z,95152.91
2023-05-16T11:41:19.330Z,95155.97
2023-05-16T11:43:50.805Z,95151.03
2023-05-16T11:46:23.214Z,95154.84
2023-05-16T11:48:55.877Z,95158.28
2023-05-16T11:51:29.822Z,95155.63
2023-05-16T11:54:03.059Z,95140.28
2023-05-16T11:56:38.100Z,95131.41
2023-05-16T11:59:10.916Z,95130.16
2023-05-16T12:01:42.848Z,95130.22
2023-05-16T12:04:14.916Z,95123.44
2023-05-16T12:07:01.035Z,95126.53
2023-05-16T12:09:32.764Z,95120.88
2023-05-16T12:12:10.324Z,95116.31
2023-05-16T12:14:41.869Z,95116.34
2023-05-16T12:17:14.945Z,95124.34
2023-05-16T12:19:46.453Z,95121.63
2023-05-16T12:22:18.979Z,95119.31
2023-05-16T12:24:50.484Z,95116.16
2023-05-16T12:27:23.102Z,95117.22
2023-05-16T12:29:59.357Z,95123.19
2023-05-16T12:32:31.108Z,95118.63
2023-05-16T12:35:03.773Z,95115.59
2023-05-16T12:37:35.173Z,95113.91
2023-05-16T12:40:07.072Z,95124.13
2023-05-16T12:42:38.761Z,95123.81
2023-05-16T12:45:19.984Z,95117.88
2023-05-16T12:47:51.461Z,95113.50
2023-05-16T12:50:23.175Z,95113.19
2023-05-16T12:52:55.691Z,95109.28
2023-05-16T12:55:27.375Z,95112.03
2023-05-16T12:58:01.564Z,95101.78
2023-05-16T13:00:34.059Z,95100.63
2023-05-16T13:03:06.275Z,95101.84
2023-05-16T13:05:37.942Z,95105.34
2023-05-16T13:08:09.321Z,95097.53
2023-05-16T13:10:40.902Z,95101.22
2023-05-16T13:13:22.026Z,95100.44
2023-05-16T13:16:00.776Z,95104.72
2023-05-16T13:18:32.256Z,95101.34
2023-05-16T13:21:06.673Z,95105.16
2023-05-16T13:23:38.268Z,95119.72
2023-05-16T13:26:09.772Z,95115.47
2023-05-16T13:28:41.577Z,95120.06
2023-05-16T13:31:13.410Z,95127.88
2023-05-16T13:33:45.361Z,95122.81
2023-05-16T13:36:17.334Z,95130.09
2023-05-16T13:38:48.830Z,95125.66
2023-05-16T13:41:20.850Z,95144.47
2023-05-16T13:43:52.310Z,95144.16
2023-05-16T13:46:23.787Z,95143.03
2023-05-16T13:48:55.391Z,95141.16
2023-05-16T13:51:26.757Z,95134.66
2023-05-16T13:53:59.117Z,95124.34
2023-05-16T13:56:30.607Z,95126.63
2023-05-16T13:59:06.426Z,95128.91
2023-05-16T14:01:38.934Z,95137.69
2023-05-16T14:04:10.838Z,95144.22
2023-05-16T14:06:42.588Z,95139.97
2023-05-16T14:09:15.333Z,95149.53
2023-05-16T14:11:48.282Z,95150.69
2023-05-16T14:14:19.832Z,95147.25
2023-05-16T14:16:51.648Z,95154.50
2023-05-16T14:19:23.241Z,95154.88
2023-05-16T14:21:58.245Z,95167.88
2023-05-16T14:24:29.873Z,95162.50
2023-05-16T14:27:01.943Z,95164.03
2023-05-16T14:29:33.335Z,95165.16
2023-05-16T14:32:05.277Z,95167.78
2023-05-16T14:34:39.283Z,95166.59
2023-05-16T14:37:12.301Z,95170.81
2023-05-16T14:39:46.572Z,95171.19
2023-05-16T14:42:18.534Z,95176.88
2023-05-16T14:44:50.063Z,95171.44
2023-05-16T14:47:21.569Z,95177.22
2023-05-16T14:49:56.538Z,95184.50
2023-05-16T14:52:28.022Z,95184.09
2023-05-16T14:55:01.666Z,95185.63
2023-05-16T14:57:33.378Z,95185.63
2023-05-16T15:00:08.299Z,95184.16
2023-05-16T15:02:39.779Z,95186.81
2023-05-16T15:05:11.217Z,95187.22
2023-05-16T15:07:44.147Z,95200.56
2023-05-16T15:10:16.856Z,95199.78
2023-05-16T15:12:48.404Z,95199.06
2023-05-16T15:15:19.980Z,95204.41
2023-05-16T15:17:51.442Z,95206.25
2023-05-16T15:20:23.614Z,95211.94
2023-05-16T15:22:55.469Z,95209.69
2023-05-16T15:25:28.757Z,95211.22
2023-05-16T15:28:00.624Z,95210.88
2023-05-16T15:30:32.118Z,95222.31
2023-05-16T15:33:04.830Z,95219.66
2023-05-16T15:35:36.317Z,95216.22
2023-05-16T15:38:08.756Z,95220.34
2023-05-16T15:40:40.412Z,95223.81
2023-05-16T15:43:11.809Z,95217.38
2023-05-16T15:45:46.170Z,95223.09
2023-05-16T15:48:18.062Z,95221.19
2023-05-16T15:50:49.493Z,95223.84
2023-05-16T15:53:21.061Z,95234.50
2023-05-16T15:55:52.798Z,95223.47
2023-05-16T15:58:24.340Z,95226.09
2023-05-16T16:00:56.072Z,95228.03
2023-05-16T16:03:27.637Z,95234.47
2023-05-16T16:05:59.174Z,95238.28
2023-05-16T16:08:31.469Z,95228.78
2023-05-16T16:11:03.625Z,95231.84
2023-05-16T16:13:35.190Z,95233.00
2023-05-16T16:16:06.982Z,95237.19
2023-05-16T16:18:38.442Z,95236.34
2023-05-16T16:21:10.806Z,95239.81
2023-05-16T16:23:42.707Z,95230.66
2023-05-16T16:26:14.978Z,95240.91
2023-05-16T16:28:50.216Z,95242.44
2023-05-16T16:31:21.706Z,95243.63
2023-05-16T16:33:54.934Z,95248.56
2023-05-16T16:36:26.610Z,95240.91
2023-05-16T16:38:58.083Z,95247.78
2023-05-16T16:41:29.498Z,95253.88
2023-05-16T16:44:01.320Z,95253.88
2023-05-16T16:46:32.799Z,95258.84
2023-05-16T16:49:04.811Z,95258.84
2023-05-16T16:51:37.303Z,95266.47
2023-05-16T16:54:08.726Z,95270.97
2023-05-16T16:56:40.106Z,95263.75
2023-05-16T16:59:11.663Z,95275.50
2023-05-16T17:01:43.657Z,95277.44
2023-05-16T17:04:15.938Z,95270.22
2023-05-16T17:06:48.803Z,95274.38
2023-05-16T17:09:21.325Z,95280.84
2023-05-16T17:11:52.986Z,95277.69
2023-05-16T17:14:24.412Z,95277.75
2023-05-16T17:16:55.973Z,95283.09
2023-05-16T17:19:27.513Z,95280.41
2023-05-16T17:21:58.959Z,95284.63
2023-05-16T17:24:30.394Z,95287.53
2023-05-16T17:27:02.523Z,95285.31
2023-05-16T17:29:34.000Z,95283.03
2023-05-16T17:32:06.609Z,95286.91
2023-05-16T17:34:38.113Z,95286.13
2023-05-16T17:37:10.546Z,95288.81
2023-05-16T17:39:42.184Z,95286.56
2023-05-16T17:42:13.571Z,95286.59
2023-05-16T17:44:45.614Z,95287.00
2023-05-16T17:47:19.368Z,95288.56
2023-05-16T17:49:51.290Z,95282.84
2023-05-16T17:52:23.169Z,95284.78
2023-05-16T17:54:55.770Z,95290.78
2023-05-16T17:57:27.960Z,95294.31
2023-05-16T17:59:59.358Z,95298.84
2023-05-16T18:02:30.886Z,95304.94
2023-05-16T18:05:02.321Z,95298.47
2023-05-16T18:07:34.125Z,95298.13
2023-05-16T18:10:05.797Z,95299.22
2023-05-16T18:12:38.731Z,95302.25
2023-05-16T18:15:12.572Z,95306.78
2023-05-16T18:17:44.252Z,95307.88
2023-05-16T18:20:15.918Z,95308.97
2023-05-16T18:22:48.032Z,95311.22
2023-05-16T18:25:19.757Z,95309.72
2023-05-16T18:27:53.494Z,95313.91
2023-05-16T18:30:24.929Z,95320.03
2023-05-16T18:32:56.577Z,95328.09
2023-05-16T18:35:28.636Z,95322.78
2023-05-16T18:38:00.432Z,95326.22
2023-05-16T18:40:32.093Z,95332.31
2023-05-16T18:43:04.130Z,95325.09
2023-05-16T18:45:36.320Z,95337.22
2023-05-16T18:48:08.015Z,95349.69
2023-05-16T18:50:39.630Z,95359.56
2023-05-16T18:53:11.470Z,95368.00
2023-05-16T18:55:43.855Z,95370.72
2023-05-16T18:58:16.002Z,95370.22
2023-05-16T19:00:48.913Z,95380.03
2023-05-16T19:03:20.795Z,95375.16
2023-05-16T19:05:52.878Z,95376.09
2023-05-16T19:08:27.198Z,95374.63
2023-05-16T19:11:02.803Z,95385.94
2023-05-16T19:13:35.152Z,95387.44
2023-05-16T19:16:06.547Z,95393.41
2023-05-16T19:18:38.472Z,95383.59
2023-05-16T19:21:13.247Z,95405.31
2023-05-16T19:23:46.334Z,95399.47
2023-05-16T19:26:18.252Z,95399.06
2023-05-16T19:28:50.253Z,95399.78
2023-05-16T19:31:22.189Z,95407.00
2023-05-16T19:33:53.595Z,95417.72
2023-05-16T19:36:25.109Z,95429.19
2023-05-16T19:38:56.567Z,95426.06
2023-05-16T19:41:28.348Z,95436.84
2023-05-16T19:43:59.782Z,95443.69
2023-05-16T19:46:31.228Z,95444.06
2023-05-16T19:49:03.229Z,95442.22
2023-05-16T19:51:41.808Z,95450.38
2023-05-16T19:54:14.774Z,95445.16
2023-05-16T19:56:46.209Z,95450.88
2023-05-16T19:59:17.757Z,95451.66
2023-05-16T20:01:49.202Z,95442.88
2023-05-16T20:04:20.808Z,95445.41
2023-05-16T20:06:52.275Z,95455.53
2023-05-16T20:09:23.746Z,95462.09
2023-05-16T20:11:57.681Z,95460.16
2023-05-16T20:14:31.775Z,95463.28
2023-05-16T20:17:03.344Z,95465.47
2023-05-16T20:19:36.870Z,95462.56
2023-05-16T20:22:08.393Z,95474.22
2023-05-16T20:24:39.872Z,95466.53
2023-05-16T20:27:14.323Z,95467.13
2023-05-16T20:29:45.984Z,95469.56
2023-05-16T20:32:17.921Z,95471.53
2023-05-16T20:34:49.592Z,95481.03
2023-05-16T20:37:23.379Z,95479.19
2023-05-16T20:39:55.305Z,95474.75
2023-05-16T20:42:26.785Z,95483.56
2023-05-16T20:44:58.963Z,95479.19
2023-05-16T20:47:30.518Z,95479.91
2023-05-16T20:50:03.484Z,95483.72
2023-05-16T20:52:35.435Z,95482.72
2023-05-16T20:55:09.057Z,95484.44
2023-05-16T20:57:42.366Z,95478.78
2023-05-16T21:00:15.784Z,95479.13
2023-05-16T21:02:47.524Z,95488.81
2023-05-16T21:05:35.215Z,95488.31
2023-05-16T21:08:07.165Z,95486.84
2023-05-16T21:10:38.611Z,95491.53
2023-05-16T21:13:10.665Z,95498.09
2023-05-16T21:15:42.164Z,95502.41
2023-05-16T21:18:15.451Z,95495.50
2023-05-16T21:20:47.079Z,95501.59
2023-05-16T21:23:19.252Z,95498.34
2023-05-16T21:25:50.999Z,95507.78
2023-05-16T21:28:22.494Z,95509.84
2023-05-16T21:30:56.483Z,95515.31
2023-05-16T21:33:29.293Z,95516.56
2023-05-16T21:36:00.806Z,95515.59
2023-05-16T21:38:32.651Z,95522.13
2023-05-16T21:41:04.131Z,95515.34
2023-05-16T21:43:35.736Z,95526.53
2023-05-16T21:46:07.207Z,95527.06
2023-05-16T21:48:38.782Z,95531.72
2023-05-16T21:51:10.274Z,95539.81
2023-05-16T21:53:41.862Z,95543.47
2023-05-16T21:56:13.931Z,95545.78
2023-05-16T21:58:45.440Z,95543.34
2023-05-16T22:01:17.321Z,95545.84
2023-05-16T22:03:49.501Z,95551.59
2023-05-16T22:06:21.176Z,95549.69
2023-05-16T22:08:53.379Z,95543.34
2023-05-16T22:11:25.062Z,95555.72
2023-05-16T22:13:56.782Z,95558.53
2023-05-16T22:16:29.364Z,95559.41
2023-05-16T22:19:00.940Z,95558.44
2023-05-16T22:21:32.492Z,95556.75
2023-05-16T22:24:04.042Z,95560.34
2023-05-16T22:26:35.429Z,95562.72
2023-05-16T22:29:06.890Z,95564.41
2023-05-16T22:31:38.333Z,95569.03
2023-05-16T22:34:11.936Z,95572.25
2023-05-16T22:36:43.414Z,95574.81
2023-05-16T22:39:14.818Z,95572.50
2023-05-16T22:41:47.148Z,95572.16
2023-05-16T22:44:18.525Z,95575.72
2023-05-16T22:46:50.211Z,95575.31
2023-05-16T22:49:21.799Z,95574.94
2023-05-16T22:51:53.306Z,95575.66
2023-05-16T22:54:27.982Z,95573.00
2023-05-16T22:56:59.697Z,95575.31
2023-05-16T22:59:31.274Z,95573.41
2023-05-16T23:02:02.747Z,95574.91
2023-05-16T23:04:34.182Z,95565.28
2023-05-16T23:07:05.810Z,95576.88
2023-05-16T23:09:37.453Z,95584.31
2023-05-16T23:12:09.050Z,95582.72
2023-05-16T23:14:40.868Z,95583.91
2023-05-16T23:17:13.913Z,95590.75
2023-05-16T23:19:45.382Z,95585.91
2023-05-16T23:22:16.888Z,95591.72
2023-05-16T23:24:48.255Z,95589.31
2023-05-16T23:27:19.682Z,95589.22
2023-05-16T23:29:51.511Z,95596.16
2023-05-16T23:32:23.088Z,95600.00
2023-05-16T23:34:55.619Z,95597.31
2023-05-16T23:37:28.045Z,95597.47
2023-05-16T23:39:59.584Z,95593.00
2023-05-16T23:42:31.284Z,95605.50
2023-05-16T23:45:06.329Z,95606.63
2023-05-16T23:47:38.187Z,95600.22
2023-05-16T23:50:10.315Z,95604.22
2023-05-16T23:52:41.661Z,95604.50
2023-05-16T23:55:13.608Z,95605.88
2023-05-16T23:57:45.472Z,95607.31
